Time;durP1;ratioP1;P1;durP2;ratioP2;P2;SDS_P1;SDS_P2;PMS_P1;PMS_P2;Temp;Humidity;BMP_temperature;BMP_pressure;BME280_temperature;BME280_humidity;BME280_pressure;Samples;Min_cycle;Max_cycle;Signal;HPM_P1;HPM_P2
2023/02/16 00:01:24;;;;;;;;;;;6.00;99.90;;;;;;5053657;28;19963;-61
2023/02/16 00:03:50;;;;;;;;;;;5.90;99.90;;;;;;5053489;28;19917;-61
2023/02/16 00:06:16;;;;;;;;;;;5.90;99.90;;;;;;5053004;28;20342;-60
2023/02/16 00:08:45;;;;;;;;;;;5.90;99.90;;;;;;5053529;28;19971;-60
2023/02/16 00:14:09;;;;;;;;;;;5.90;99.90;;;;;;5053348;28;20264;-60
2023/02/16 00:16:34;;;;;;;;;;;5.90;99.90;;;;;;5053408;28;19917;-60
2023/02/16 00:19:00;;;;;;;;;;;5.90;99.90;;;;;;5053170;28;19943;-60
2023/02/16 00:21:26;;;;;;;;;;;5.90;99.90;;;;;;5053179;28;19979;-60
2023/02/16 00:23:51;;;;;;;;;;;5.80;99.90;;;;;;5053420;28;19932;-60
2023/02/16 00:26:27;;;;;;;;;;;5.90;99.90;;;;;;5052170;28;19967;-61
2023/02/16 00:28:53;;;;;;;;;;;5.90;99.90;;;;;;5053090;28;20377;-60
2023/02/16 00:31:20;;;;;;;;;;;5.80;99.90;;;;;;5053228;28;19923;-60
2023/02/16 00:33:46;;;;;;;;;;;5.80;99.90;;;;;;5053103;28;19917;-60
2023/02/16 00:36:11;;;;;;;;;;;5.80;99.90;;;;;;5051178;28;19962;-60
2023/02/16 00:38:37;;;;;;;;;;;5.80;99.90;;;;;;5050633;28;19970;-61
2023/02/16 00:41:03;;;;;;;;;;;5.70;99.90;;;;;;5051952;28;20344;-60
2023/02/16 00:43:29;;;;;;;;;;;5.80;99.90;;;;;;5052785;28;19925;-61
2023/02/16 00:45:55;;;;;;;;;;;5.80;99.90;;;;;;5053305;28;19920;-61
2023/02/16 00:48:21;;;;;;;;;;;5.80;99.90;;;;;;5052774;28;19917;-61
2023/02/16 00:50:46;;;;;;;;;;;5.70;99.90;;;;;;5052803;28;19928;-60
2023/02/16 00:53:12;;;;;;;;;;;5.70;99.90;;;;;;5052568;28;20434;-60
2023/02/16 00:55:39;;;;;;;;;;;5.70;99.90;;;;;;5052957;28;19921;-61
2023/02/16 00:58:13;;;;;;;;;;;5.70;99.90;;;;;;5052363;28;19970;-60
2023/02/16 01:00:45;;;;;;;;;;;5.70;99.90;;;;;;5052702;28;19917;-60
2023/02/16 01:03:13;;;;;;;;;;;5.70;99.90;;;;;;5051161;28;20326;-60
2023/02/16 01:05:38;;;;;;;;;;;5.70;99.90;;;;;;5051799;28;19916;-60
2023/02/16 01:11:08;;;;;;;;;;;5.60;99.90;;;;;;5052239;28;20395;-61
2023/02/16 01:13:38;;;;;;;;;;;5.60;99.90;;;;;;5052488;28;19951;-60
2023/02/16 01:16:03;;;;;;;;;;;5.60;99.90;;;;;;5052303;28;20015;-60
2023/02/16 01:18:29;;;;;;;;;;;5.60;99.90;;;;;;5052222;28;20006;-60
2023/02/16 01:20:54;;;;;;;;;;;5.70;99.90;;;;;;5051521;28;19920;-59
2023/02/16 01:23:20;;;;;;;;;;;5.70;99.90;;;;;;5050872;28;19921;-61
2023/02/16 01:25:46;;;;;;;;;;;5.70;99.90;;;;;;5052200;28;20075;-60
2023/02/16 01:28:22;;;;;;;;;;;5.70;99.90;;;;;;5052314;28;20004;-60
2023/02/16 01:30:48;;;;;;;;;;;5.70;99.90;;;;;;5052115;28;19959;-61
2023/02/16 01:33:14;;;;;;;;;;;5.70;99.90;;;;;;5052078;28;20015;-60
2023/02/16 01:35:40;;;;;;;;;;;5.70;99.90;;;;;;5051530;28;20019;-61
2023/02/16 01:38:05;;;;;;;;;;;5.70;99.90;;;;;;5050099;28;20374;-60
2023/02/16 01:40:33;;;;;;;;;;;5.70;99.90;;;;;;5050727;28;19920;-60
2023/02/16 01:43:19;;;;;;;;;;;5.60;99.90;;;;;;5052099;28;20329;-61
2023/02/16 01:45:55;;;;;;;;;;;5.60;99.90;;;;;;5050833;28;20405;-60
2023/02/16 01:48:24;;;;;;;;;;;5.60;99.90;;;;;;5052144;28;19916;-64
2023/02/16 01:50:58;;;;;;;;;;;5.60;99.90;;;;;;5054763;28;19916;-61
2023/02/16 01:53:39;;;;;;;;;;;5.60;99.90;;;;;;5056326;28;20385;-60
2023/02/16 01:56:09;;;;;;;;;;;5.60;99.90;;;;;;5055778;28;19917;-62
2023/02/16 01:58:49;;;;;;;;;;;5.60;99.90;;;;;;5056260;28;19959;-60
2023/02/16 02:01:33;;;;;;;;;;;5.60;99.90;;;;;;5055838;28;19923;-60
2023/02/16 02:06:43;;;;;;;;;;;5.50;99.90;;;;;;5055297;28;19916;-60
2023/02/16 02:09:47;;;;;;;;;;;5.50;99.90;;;;;;5056030;28;20268;-60
2023/02/16 02:12:17;;;;;;;;;;;5.40;99.90;;;;;;4994297;28;19918;-61
2023/02/16 02:14:43;;;;;;;;;;;5.40;99.90;;;;;;4994186;28;19918;-60
2023/02/16 02:17:11;;;;;;;;;;;5.30;99.90;;;;;;4994149;28;20277;-60
2023/02/16 02:19:55;;;;;;;;;;;5.30;99.90;;;;;;4993752;28;19931;-60
2023/02/16 02:25:22;;;;;;;;;;;5.20;99.90;;;;;;4993926;28;20383;-60
2023/02/16 02:27:54;;;;;;;;;;;5.40;99.90;;;;;;4993825;28;19918;-60
2023/02/16 02:30:38;;;;;;;;;;;5.20;99.90;;;;;;4993929;28;20004;-60
2023/02/16 02:33:16;;;;;;;;;;;5.20;99.90;;;;;;4993754;28;20364;-60
2023/02/16 02:35:47;;;;;;;;;;;5.10;99.90;;;;;;4993920;28;19918;-60
2023/02/16 02:38:13;;;;;;;;;;;5.10;99.90;;;;;;4993756;28;19925;-60
2023/02/16 02:40:38;;;;;;;;;;;5.10;99.90;;;;;;4977576;28;19917;-60
2023/02/16 02:43:10;;;;;;;;;;;5.10;99.90;;;;;;5027318;28;20283;-60
2023/02/16 02:45:39;;;;;;;;;;;5.10;99.90;;;;;;5055192;28;20292;-61
2023/02/16 02:48:05;;;;;;;;;;;5.20;99.90;;;;;;5055298;28;19921;-60
2023/02/16 02:50:36;;;;;;;;;;;5.10;99.90;;;;;;5055151;28;19927;-61
2023/02/16 02:53:03;;;;;;;;;;;5.10;99.90;;;;;;5055262;28;20314;-60
2023/02/16 03:01:01;;;;;;;;;;;5.20;99.90;;;;;;5054979;28;19970;-60
2023/02/16 03:03:31;;;;;;;;;;;5.20;99.90;;;;;;5055097;28;20321;-60
2023/02/16 03:05:59;;;;;;;;;;;5.20;99.90;;;;;;5053339;28;20110;-60
2023/02/16 03:08:26;;;;;;;;;;;5.20;99.90;;;;;;5054734;28;19921;-60
2023/02/16 03:13:41;;;;;;;;;;;5.20;99.90;;;;;;5054590;28;20474;-60
2023/02/16 03:16:12;;;;;;;;;;;5.20;99.90;;;;;;5054400;28;20355;-60
2023/02/16 03:29:41;;;;;;;;;;;5.40;99.90;;;;;;5054352;28;19924;-60
2023/02/16 03:32:06;;;;;;;;;;;5.40;99.90;;;;;;5054145;28;20289;-61
2023/02/16 03:34:34;;;;;;;;;;;5.50;99.90;;;;;;5054480;28;19917;-60
2023/02/16 03:36:59;;;;;;;;;;;5.60;99.90;;;;;;5054205;28;19953;-60
2023/02/16 03:39:25;;;;;;;;;;;5.60;99.90;;;;;;5054197;28;19917;-60
2023/02/16 03:41:52;;;;;;;;;;;5.60;99.90;;;;;;5053908;28;20358;-61
2023/02/16 03:44:18;;;;;;;;;;;5.70;99.90;;;;;;5053945;28;19916;-59
2023/02/16 03:46:44;;;;;;;;;;;5.70;99.90;;;;;;5053899;28;20291;-60
2023/02/16 03:49:10;;;;;;;;;;;5.80;99.90;;;;;;5054157;28;19948;-60
2023/02/16 03:51:35;;;;;;;;;;;5.80;99.90;;;;;;5054071;28;19920;-60
2023/02/16 03:54:01;;;;;;;;;;;5.80;99.90;;;;;;5053932;28;19970;-60
2023/02/16 03:56:27;;;;;;;;;;;5.80;99.90;;;;;;5053719;28;19979;-60
2023/02/16 03:58:52;;;;;;;;;;;5.90;99.90;;;;;;5053701;28;19924;-60
2023/02/16 04:01:18;;;;;;;;;;;5.90;99.90;;;;;;5053629;28;20015;-60
2023/02/16 04:03:43;;;;;;;;;;;6.00;99.90;;;;;;5053697;28;20054;-60
2023/02/16 04:06:09;;;;;;;;;;;6.00;99.90;;;;;;5053686;28;19975;-61
2023/02/16 04:08:35;;;;;;;;;;;6.00;99.90;;;;;;5053754;28;20054;-61
2023/02/16 04:12:34;;;;;;;;;;;6.00;99.90;;;;;;5053813;28;20352;-60
2023/02/16 04:13:46;;;;;;;;;;;6.10;99.90;;;;;;5052742;28;19963;-60
2023/02/16 04:16:11;;;;;;;;;;;6.10;99.90;;;;;;5052025;28;19921;-61
2023/02/16 04:18:37;;;;;;;;;;;6.10;99.90;;;;;;5053395;28;19927;-61
2023/02/16 04:21:02;;;;;;;;;;;6.10;99.90;;;;;;5053454;28;19988;-60
2023/02/16 04:23:28;;;;;;;;;;;6.10;99.90;;;;;;5053243;28;20286;-60
2023/02/16 04:25:53;;;;;;;;;;;6.10;99.90;;;;;;5053104;28;19917;-60
2023/02/16 04:28:19;;;;;;;;;;;6.10;99.90;;;;;;5053107;28;20290;-61
2023/02/16 04:30:44;;;;;;;;;;;6.10;99.90;;;;;;5052254;28;20351;-61
2023/02/16 04:33:10;;;;;;;;;;;6.10;99.90;;;;;;5053041;28;19923;-60
2023/02/16 04:35:35;;;;;;;;;;;6.20;99.90;;;;;;5053140;28;19923;-60
2023/02/16 04:38:01;;;;;;;;;;;6.20;99.90;;;;;;5052870;28;19923;-61
2023/02/16 04:40:26;;;;;;;;;;;6.20;99.90;;;;;;5052769;28;19934;-61
2023/02/16 04:42:52;;;;;;;;;;;6.20;99.90;;;;;;5052994;28;19928;-60
2023/02/16 04:45:18;;;;;;;;;;;6.20;99.90;;;;;;5051947;28;20071;-60
2023/02/16 04:47:43;;;;;;;;;;;6.30;99.90;;;;;;5052766;28;19917;-60
2023/02/16 04:50:09;;;;;;;;;;;6.30;99.90;;;;;;5052834;28;19924;-59
2023/02/16 04:52:36;;;;;;;;;;;6.20;99.90;;;;;;5052623;28;19924;-60
2023/02/16 04:55:02;;;;;;;;;;;6.30;99.90;;;;;;5052597;28;20007;-60
2023/02/16 04:57:27;;;;;;;;;;;6.30;99.90;;;;;;5052372;28;19975;-59
2023/02/16 04:59:53;;;;;;;;;;;6.30;99.90;;;;;;5052522;28;19920;-61
2023/02/16 05:02:18;;;;;;;;;;;6.30;99.90;;;;;;5052472;28;19920;-60
2023/02/16 05:04:44;;;;;;;;;;;6.30;99.90;;;;;;5052736;28;19923;-61
2023/02/16 05:07:09;;;;;;;;;;;6.30;99.90;;;;;;5052731;28;20339;-60
2023/02/16 05:09:35;;;;;;;;;;;6.30;99.90;;;;;;5052506;28;19921;-60
2023/02/16 05:14:45;;;;;;;;;;;6.30;99.90;;;;;;5052523;28;19963;-60
2023/02/16 05:17:10;;;;;;;;;;;6.40;99.90;;;;;;5051408;28;19920;-61
2023/02/16 05:19:36;;;;;;;;;;;6.40;99.90;;;;;;5052323;28;19924;-61
2023/02/16 05:22:02;;;;;;;;;;;6.40;99.90;;;;;;5052129;28;19959;-60
2023/02/16 05:24:27;;;;;;;;;;;6.40;99.90;;;;;;5052172;28;19948;-60
2023/02/16 05:26:53;;;;;;;;;;;6.30;99.90;;;;;;5052479;28;19922;-60
2023/02/16 05:29:19;;;;;;;;;;;6.30;99.90;;;;;;5052155;28;19917;-60
2023/02/16 05:31:44;;;;;;;;;;;6.40;99.90;;;;;;5052335;28;20017;-61
2023/02/16 05:34:10;;;;;;;;;;;6.40;99.90;;;;;;5052315;28;19924;-60
2023/02/16 05:36:36;;;;;;;;;;;6.40;99.90;;;;;;5051187;28;19977;-60
2023/02/16 05:39:02;;;;;;;;;;;6.40;99.90;;;;;;5051933;28;19917;-60
2023/02/16 05:41:27;;;;;;;;;;;6.40;99.90;;;;;;5051630;28;19962;-60
2023/02/16 05:43:54;;;;;;;;;;;6.50;99.90;;;;;;5050759;28;19916;-61
2023/02/16 05:46:21;;;;;;;;;;;6.50;99.90;;;;;;5051059;28;19916;-60
2023/02/16 05:48:46;;;;;;;;;;;6.40;99.90;;;;;;5052009;28;19921;-60
2023/02/16 05:51:12;;;;;;;;;;;6.40;99.90;;;;;;5052037;28;20282;-60
2023/02/16 05:53:37;;;;;;;;;;;6.40;99.90;;;;;;5051992;28;19924;-61
2023/02/16 05:56:03;;;;;;;;;;;6.40;99.90;;;;;;5052188;28;19916;-60
2023/02/16 05:58:29;;;;;;;;;;;6.40;99.90;;;;;;5051173;28;19982;-60
2023/02/16 06:00:54;;;;;;;;;;;6.40;99.90;;;;;;5052365;28;19928;-60
2023/02/16 06:03:20;;;;;;;;;;;6.40;99.90;;;;;;5051927;28;19927;-60
2023/02/16 06:05:45;;;;;;;;;;;6.40;99.90;;;;;;5051839;28;20099;-60
2023/02/16 06:08:11;;;;;;;;;;;6.40;99.90;;;;;;5051834;28;19917;-60
2023/02/16 06:10:36;;;;;;;;;;;6.40;99.90;;;;;;5052079;28;19924;-60
2023/02/16 06:13:02;;;;;;;;;;;6.40;99.90;;;;;;5052097;28;19917;-61
2023/02/16 06:15:27;;;;;;;;;;;6.40;99.90;;;;;;5051958;28;19923;-60
2023/02/16 06:17:53;;;;;;;;;;;6.50;99.90;;;;;;5051807;28;20325;-60
2023/02/16 06:20:19;;;;;;;;;;;6.50;99.90;;;;;;5051465;28;20294;-60
2023/02/16 06:22:44;;;;;;;;;;;6.50;99.90;;;;;;5051625;28;19921;-60
2023/02/16 06:25:10;;;;;;;;;;;6.50;99.90;;;;;;5051748;28;19952;-60
2023/02/16 06:27:36;;;;;;;;;;;6.50;99.90;;;;;;5051598;28;19916;-61
2023/02/16 06:30:02;;;;;;;;;;;6.50;99.90;;;;;;5051768;28;19917;-60
2023/02/16 06:32:28;;;;;;;;;;;6.50;99.90;;;;;;5051592;28;19951;-60
2023/02/16 06:34:54;;;;;;;;;;;6.50;99.90;;;;;;5051632;28;19916;-60
2023/02/16 06:37:21;;;;;;;;;;;6.50;99.90;;;;;;5053792;28;19928;-60
2023/02/16 06:39:46;;;;;;;;;;;6.50;99.90;;;;;;5055711;28;19932;-60
2023/02/16 06:42:12;;;;;;;;;;;6.50;99.90;;;;;;5055367;28;19924;-60
2023/02/16 06:44:43;;;;;;;;;;;6.60;99.90;;;;;;5054098;28;19916;-60
2023/02/16 06:47:08;;;;;;;;;;;6.60;99.90;;;;;;5055414;28;19943;-60
2023/02/16 06:49:34;;;;;;;;;;;6.60;99.90;;;;;;5055280;28;20350;-60
2023/02/16 06:51:59;;;;;;;;;;;6.60;99.90;;;;;;5055054;28;20422;-59
2023/02/16 06:54:25;;;;;;;;;;;6.60;99.90;;;;;;5054991;28;20318;-60
2023/02/16 06:56:50;;;;;;;;;;;6.60;99.90;;;;;;5055002;28;20436;-62
2023/02/16 06:59:16;;;;;;;;;;;6.60;99.90;;;;;;5055012;28;19921;-60
2023/02/16 07:01:42;;;;;;;;;;;6.60;99.90;;;;;;5054858;28;19916;-60
2023/02/16 07:04:07;;;;;;;;;;;6.70;99.90;;;;;;5054664;28;19958;-61
2023/02/16 07:06:33;;;;;;;;;;;6.70;99.90;;;;;;5053892;28;19924;-60
2023/02/16 07:08:58;;;;;;;;;;;6.70;99.90;;;;;;5053320;28;20000;-60
2023/02/16 07:11:24;;;;;;;;;;;6.70;99.90;;;;;;5052928;28;19956;-60
2023/02/16 07:13:50;;;;;;;;;;;6.70;99.90;;;;;;5052447;28;20267;-60
2023/02/16 07:16:15;;;;;;;;;;;6.80;99.90;;;;;;5053146;28;19917;-60
2023/02/16 07:18:41;;;;;;;;;;;6.80;99.90;;;;;;5054303;28;20019;-60
2023/02/16 07:21:06;;;;;;;;;;;6.80;99.90;;;;;;5054391;28;20448;-60
2023/02/16 07:23:32;;;;;;;;;;;6.80;99.90;;;;;;5054543;28;20263;-60
2023/02/16 07:25:58;;;;;;;;;;;6.90;99.90;;;;;;5053386;28;19927;-61
2023/02/16 07:28:24;;;;;;;;;;;6.90;99.90;;;;;;5054343;28;19984;-60
2023/02/16 07:30:50;;;;;;;;;;;6.90;99.90;;;;;;5054409;28;19921;-60
2023/02/16 07:33:15;;;;;;;;;;;6.90;99.90;;;;;;5054296;28;19917;-60
2023/02/16 07:35:41;;;;;;;;;;;6.90;99.90;;;;;;5054075;28;20283;-61
2023/02/16 07:38:07;;;;;;;;;;;7.00;99.90;;;;;;5053784;28;19969;-60
2023/02/16 07:40:32;;;;;;;;;;;6.90;99.90;;;;;;5051362;28;19917;-61
2023/02/16 07:43:00;;;;;;;;;;;7.00;99.90;;;;;;5053248;28;19920;-60
2023/02/16 07:45:25;;;;;;;;;;;6.90;99.90;;;;;;5054012;28;20291;-60
2023/02/16 07:47:51;;;;;;;;;;;7.00;99.90;;;;;;5052866;28;19924;-61
2023/02/16 07:50:16;;;;;;;;;;;7.00;99.90;;;;;;5054037;28;19962;-59
2023/02/16 07:52:42;;;;;;;;;;;7.10;99.90;;;;;;5054135;28;19924;-59
2023/02/16 07:55:07;;;;;;;;;;;7.10;99.90;;;;;;5053854;28;19917;-59
2023/02/16 07:57:33;;;;;;;;;;;7.10;99.90;;;;;;5053678;28;19962;-60
2023/02/16 07:59:58;;;;;;;;;;;7.10;99.90;;;;;;5053792;28;19948;-60
2023/02/16 08:02:26;;;;;;;;;;;7.10;99.90;;;;;;5053800;28;19921;-60
2023/02/16 08:04:52;;;;;;;;;;;7.10;99.90;;;;;;5053765;28;19923;-60
2023/02/16 08:07:18;;;;;;;;;;;7.20;99.90;;;;;;5052978;28;19998;-60
2023/02/16 08:09:43;;;;;;;;;;;7.20;99.90;;;;;;5052034;28;19920;-59
2023/02/16 08:12:09;;;;;;;;;;;7.20;99.90;;;;;;5052624;28;20379;-60
2023/02/16 08:14:35;;;;;;;;;;;7.20;99.90;;;;;;5052896;28;19920;-60
2023/02/16 08:17:01;;;;;;;;;;;7.20;99.90;;;;;;5053465;28;20271;-60
2023/02/16 08:19:28;;;;;;;;;;;7.20;99.90;;;;;;5053174;28;20275;-60
2023/02/16 08:21:53;;;;;;;;;;;7.30;99.90;;;;;;5053275;28;19921;-60
2023/02/16 08:24:20;;;;;;;;;;;7.30;99.90;;;;;;5053479;28;20341;-60
2023/02/16 08:26:48;;;;;;;;;;;7.40;99.90;;;;;;5053208;28;19916;-60
2023/02/16 08:29:16;;;;;;;;;;;7.40;99.90;;;;;;5053237;28;19924;-60
2023/02/16 08:31:43;;;;;;;;;;;7.40;99.90;;;;;;5053267;28;19935;-60
2023/02/16 08:34:08;;;;;;;;;;;7.40;99.90;;;;;;5053110;28;19952;-60
2023/02/16 08:36:37;;;;;;;;;;;7.50;99.90;;;;;;5052962;28;19955;-59
2023/02/16 08:39:13;;;;;;;;;;;7.50;99.90;;;;;;5051141;28;19932;-60
2023/02/16 08:41:39;;;;;;;;;;;7.50;99.90;;;;;;5051823;28;19996;-60
2023/02/16 08:44:06;;;;;;;;;;;7.60;99.90;;;;;;5051262;28;20003;-60
2023/02/16 08:46:32;;;;;;;;;;;7.60;99.90;;;;;;5052927;28;19952;-59
2023/02/16 08:48:59;;;;;;;;;;;7.70;99.90;;;;;;5053081;28;19917;-60
2023/02/16 08:51:26;;;;;;;;;;;7.60;99.90;;;;;;5052867;28;19920;-60
2023/02/16 08:53:52;;;;;;;;;;;7.60;99.90;;;;;;5052712;28;19961;-60
2023/02/16 08:56:18;;;;;;;;;;;7.70;99.90;;;;;;5052847;28;19921;-60
2023/02/16 08:58:44;;;;;;;;;;;7.70;99.90;;;;;;5052611;28;20066;-60
2023/02/16 09:01:11;;;;;;;;;;;7.70;99.90;;;;;;5052937;28;19920;-61
2023/02/16 09:03:40;;;;;;;;;;;7.70;99.90;;;;;;5053078;28;19936;-60
2023/02/16 09:06:05;;;;;;;;;;;7.80;99.90;;;;;;5051733;28;19944;-60
2023/02/16 09:08:36;;;;;;;;;;;7.80;99.90;;;;;;5052423;28;20438;-60
2023/02/16 09:11:02;;;;;;;;;;;7.80;99.90;;;;;;5052569;28;19967;-60
2023/02/16 09:13:28;;;;;;;;;;;7.90;99.90;;;;;;5052417;28;19916;-61
2023/02/16 09:15:54;;;;;;;;;;;7.90;99.90;;;;;;5052374;28;19920;-60
2023/02/16 09:18:20;;;;;;;;;;;7.90;99.90;;;;;;5052688;28;20027;-60
2023/02/16 09:20:45;;;;;;;;;;;7.90;99.90;;;;;;5052424;28;20905;-60
2023/02/16 09:23:11;;;;;;;;;;;7.90;99.90;;;;;;5052324;28;19921;-61
2023/02/16 09:25:38;;;;;;;;;;;7.90;99.90;;;;;;5051115;28;19964;-60
2023/02/16 09:28:04;;;;;;;;;;;8.00;99.90;;;;;;5052332;28;19917;-60
2023/02/16 09:30:30;;;;;;;;;;;8.00;99.90;;;;;;5052208;28;19982;-59
2023/02/16 09:32:57;;;;;;;;;;;8.00;99.90;;;;;;5052213;28;19939;-60
2023/02/16 09:35:23;;;;;;;;;;;8.00;99.90;;;;;;5052364;28;19920;-60
2023/02/16 09:37:48;;;;;;;;;;;8.10;99.90;;;;;;5052106;28;19917;-60
2023/02/16 09:40:15;;;;;;;;;;;8.20;99.90;;;;;;5052196;28;19920;-60
2023/02/16 09:42:50;;;;;;;;;;;8.20;99.90;;;;;;5050759;28;19960;-60
2023/02/16 09:45:17;;;;;;;;;;;8.20;99.90;;;;;;5052603;28;20280;-59
2023/02/16 09:47:46;;;;;;;;;;;8.30;99.90;;;;;;5050975;28;19921;-60
2023/02/16 09:50:17;;;;;;;;;;;8.30;99.90;;;;;;5052021;28;19939;-60
2023/02/16 09:52:46;;;;;;;;;;;8.30;99.90;;;;;;5050979;28;19943;-60
2023/02/16 09:55:15;;;;;;;;;;;8.50;99.90;;;;;;5051896;28;19924;-60
2023/02/16 09:57:54;;;;;;;;;;;8.50;99.90;;;;;;5051868;28;19971;-60
2023/02/16 10:00:28;;;;;;;;;;;8.50;99.90;;;;;;5052179;28;19921;-60
2023/02/16 10:02:58;;;;;;;;;;;8.60;99.90;;;;;;5051860;28;19928;-60
2023/02/16 10:05:31;;;;;;;;;;;8.60;99.90;;;;;;5051913;28;20287;-60
2023/02/16 10:08:03;;;;;;;;;;;8.50;99.90;;;;;;5051818;28;19965;-61
2023/02/16 10:10:41;;;;;;;;;;;8.50;99.90;;;;;;5052780;28;20392;-61
2023/02/16 10:13:12;;;;;;;;;;;8.50;99.90;;;;;;5055810;28;19920;-60
2023/02/16 10:15:40;;;;;;;;;;;8.50;99.90;;;;;;5054581;28;19921;-60
2023/02/16 10:18:24;;;;;;;;;;;8.60;99.90;;;;;;5056065;28;19916;-60
2023/02/16 10:20:52;;;;;;;;;;;8.60;99.90;;;;;;5055463;28;19960;-60
2023/02/16 10:23:18;;;;;;;;;;;8.60;99.90;;;;;;5055580;28;19925;-60
2023/02/16 10:25:49;;;;;;;;;;;8.60;99.90;;;;;;5055607;28;19923;-60
2023/02/16 10:28:14;;;;;;;;;;;8.70;99.90;;;;;;5055488;28;19917;-61
2023/02/16 10:30:57;;;;;;;;;;;8.60;99.90;;;;;;5055437;28;20286;-60
2023/02/16 10:33:30;;;;;;;;;;;8.70;99.90;;;;;;5055352;28;20318;-60
2023/02/16 10:36:00;;;;;;;;;;;8.70;99.90;;;;;;5055280;28;20367;-60
2023/02/16 10:38:42;;;;;;;;;;;8.70;99.90;;;;;;5055201;28;19963;-59
2023/02/16 10:41:30;;;;;;;;;;;8.70;99.90;;;;;;5055237;28;19920;-60
2023/02/16 10:44:00;;;;;;;;;;;8.70;99.90;;;;;;5055442;28;19920;-60
2023/02/16 10:46:29;;;;;;;;;;;8.70;99.90;;;;;;5053875;28;19952;-60
2023/02/16 10:48:55;;;;;;;;;;;8.80;99.90;;;;;;5054079;28;19946;-59
2023/02/16 10:51:26;;;;;;;;;;;8.70;99.90;;;;;;5055118;28;19916;-60
2023/02/16 10:53:53;;;;;;;;;;;8.70;99.90;;;;;;5055223;28;20350;-61
2023/02/16 10:56:33;;;;;;;;;;;8.70;99.90;;;;;;5055125;28;20663;-62
2023/02/16 10:58:59;;;;;;;;;;;8.70;99.90;;;;;;5054947;28;19923;-60
2023/02/16 11:01:33;;;;;;;;;;;8.70;99.90;;;;;;5054902;28;19923;-60
2023/02/16 11:03:59;;;;;;;;;;;8.60;99.90;;;;;;5054604;28;19928;-61
2023/02/16 11:06:24;;;;;;;;;;;8.70;99.90;;;;;;5054937;28;19917;-60
2023/02/16 11:08:50;;;;;;;;;;;8.70;99.90;;;;;;5053378;28;20306;-60
2023/02/16 11:11:16;;;;;;;;;;;8.60;99.90;;;;;;5054646;28;19917;-60
2023/02/16 11:13:45;;;;;;;;;;;8.70;99.90;;;;;;5054514;28;19917;-60
2023/02/16 11:16:18;;;;;;;;;;;8.70;99.90;;;;;;5054547;28;19956;-60
2023/02/16 11:18:54;;;;;;;;;;;8.70;99.90;;;;;;5054723;28;20753;-60
2023/02/16 11:21:20;;;;;;;;;;;8.70;99.90;;;;;;5054161;28;19936;-60
2023/02/16 11:23:56;;;;;;;;;;;8.70;99.90;;;;;;5053281;28;19920;-60
2023/02/16 11:26:25;;;;;;;;;;;8.60;99.90;;;;;;5054186;28;19917;-61
2023/02/16 11:28:51;;;;;;;;;;;8.70;99.90;;;;;;5054530;28;19959;-60
2023/02/16 11:31:30;;;;;;;;;;;8.70;99.90;;;;;;5054170;28;19920;-60
2023/02/16 11:34:06;;;;;;;;;;;8.80;99.90;;;;;;5054398;28;20015;-60
2023/02/16 11:36:42;;;;;;;;;;;8.70;99.90;;;;;;5054141;28;19917;-59
2023/02/16 11:39:26;;;;;;;;;;;8.80;99.90;;;;;;5054154;28;19917;-61
2023/02/16 11:42:27;;;;;;;;;;;8.80;99.90;;;;;;5054090;28;20388;-61
2023/02/16 11:44:55;;;;;;;;;;;8.80;99.90;;;;;;4992559;28;19945;-61
2023/02/16 11:47:20;;;;;;;;;;;8.80;99.90;;;;;;4992688;28;19949;-61
2023/02/16 11:49:46;;;;;;;;;;;8.90;99.90;;;;;;4976396;28;19917;-60
2023/02/16 11:52:23;;;;;;;;;;;8.90;99.90;;;;;;4976050;28;20360;-60
2023/02/16 11:54:49;;;;;;;;;;;8.90;99.90;;;;;;4992405;28;19914;-60
2023/02/16 11:57:21;;;;;;;;;;;9.00;99.90;;;;;;4992254;28;20491;-60
2023/02/16 11:59:47;;;;;;;;;;;9.00;99.90;;;;;;4992362;28;19922;-61
2023/02/16 12:02:16;;;;;;;;;;;9.00;99.90;;;;;;4992049;28;19941;-60
2023/02/16 12:04:49;;;;;;;;;;;9.10;99.90;;;;;;4976074;28;20368;-60
2023/02/16 12:07:28;;;;;;;;;;;9.00;99.90;;;;;;4992147;28;19952;-60
2023/02/16 12:09:59;;;;;;;;;;;9.00;99.90;;;;;;4975825;28;19918;-60
2023/02/16 12:12:30;;;;;;;;;;;9.00;99.90;;;;;;4991884;28;19980;-60
2023/02/16 12:15:02;;;;;;;;;;;9.00;99.90;;;;;;4991963;28;19925;-61
2023/02/16 12:17:30;;;;;;;;;;;9.10;99.90;;;;;;4991879;28;19975;-60
2023/02/16 12:20:02;;;;;;;;;;;9.20;99.90;;;;;;5050167;28;20371;-61
2023/02/16 12:22:39;;;;;;;;;;;9.40;99.90;;;;;;5053232;28;20019;-61
2023/02/16 12:25:23;;;;;;;;;;;9.50;99.90;;;;;;5052016;28;19917;-60
2023/02/16 12:28:11;;;;;;;;;;;9.70;99.90;;;;;;5053422;28;20382;-60
2023/02/16 12:30:45;;;;;;;;;;;9.90;99.90;;;;;;5053036;28;20019;-61
2023/02/16 12:33:13;;;;;;;;;;;10.20;99.90;;;;;;5052945;28;19917;-60
2023/02/16 12:35:39;;;;;;;;;;;10.30;99.90;;;;;;5052788;28;19924;-60
2023/02/16 12:38:04;;;;;;;;;;;10.30;99.90;;;;;;5052908;28;20274;-60
2023/02/16 12:40:48;;;;;;;;;;;10.30;99.90;;;;;;5053040;28;19963;-61
2023/02/16 12:43:26;;;;;;;;;;;10.40;99.90;;;;;;5052937;28;19921;-61
2023/02/16 12:45:53;;;;;;;;;;;10.60;99.90;;;;;;5053162;28;19921;-61
2023/02/16 12:48:38;;;;;;;;;;;10.60;99.90;;;;;;5052934;28;20527;-61
2023/02/16 12:51:09;;;;;;;;;;;10.70;99.90;;;;;;5052854;28;20008;-61
2023/02/16 12:53:49;;;;;;;;;;;10.60;99.90;;;;;;5052896;28;20797;-61
2023/02/16 12:56:17;;;;;;;;;;;10.80;99.90;;;;;;5052725;28;20321;-60
2023/02/16 12:58:52;;;;;;;;;;;10.90;99.90;;;;;;5052562;28;19916;-61
2023/02/16 13:01:24;;;;;;;;;;;10.80;99.90;;;;;;5052817;28;20014;-60
2023/02/16 13:03:58;;;;;;;;;;;10.90;99.90;;;;;;5051388;28;19927;-61
2023/02/16 13:06:29;;;;;;;;;;;10.90;99.90;;;;;;5052231;28;19975;-61
2023/02/16 13:09:02;;;;;;;;;;;10.80;99.90;;;;;;5052510;28;19916;-61
2023/02/16 13:11:39;;;;;;;;;;;10.90;99.90;;;;;;5052359;28;20374;-61
2023/02/16 13:14:12;;;;;;;;;;;10.80;99.90;;;;;;5051225;28;19952;-61
2023/02/16 13:16:46;;;;;;;;;;;10.90;99.90;;;;;;5051379;28;20398;-62
2023/02/16 13:19:12;;;;;;;;;;;10.80;99.90;;;;;;5052166;28;19917;-61
2023/02/16 13:21:57;;;;;;;;;;;10.80;99.90;;;;;;5052045;28;19921;-61
2023/02/16 13:24:38;;;;;;;;;;;10.80;99.90;;;;;;5052514;28;20283;-59
2023/02/16 13:27:28;;;;;;;;;;;10.80;99.90;;;;;;5052304;28;19916;-60
2023/02/16 13:30:00;;;;;;;;;;;11.00;99.90;;;;;;5052188;28;19916;-60
2023/02/16 13:32:26;;;;;;;;;;;11.00;99.90;;;;;;5051372;28;20350;-60
2023/02/16 13:35:00;;;;;;;;;;;11.10;99.90;;;;;;5052333;28;20442;-60
2023/02/16 13:37:31;;;;;;;;;;;11.20;99.90;;;;;;5052126;28;19924;-61
2023/02/16 13:39:57;;;;;;;;;;;11.10;99.90;;;;;;5052110;28;20422;-61
2023/02/16 13:42:37;;;;;;;;;;;11.10;99.90;;;;;;5051926;28;19968;-61
2023/02/16 13:45:11;;;;;;;;;;;11.20;99.90;;;;;;5052261;28;19975;-61
2023/02/16 13:47:38;;;;;;;;;;;11.30;99.90;;;;;;5056177;28;19920;-62
2023/02/16 13:50:05;;;;;;;;;;;11.30;99.90;;;;;;5056203;28;19916;-60
2023/02/16 13:52:34;;;;;;;;;;;11.30;99.90;;;;;;5056156;28;19916;-60
2023/02/16 13:55:02;;;;;;;;;;;11.40;99.90;;;;;;5055990;28;19955;-60
2023/02/16 13:57:46;;;;;;;;;;;11.40;99.90;;;;;;5056249;28;19972;-61
2023/02/16 14:00:31;;;;;;;;;;;11.40;99.90;;;;;;5038018;28;19921;-60
2023/02/16 14:03:15;;;;;;;;;;;11.40;99.90;;;;;;5055858;28;19917;-61
2023/02/16 14:05:45;;;;;;;;;;;11.30;99.90;;;;;;5054637;28;20379;-60
2023/02/16 14:08:17;;;;;;;;;;;11.10;99.90;;;;;;5054581;28;20397;-61
2023/02/16 14:10:52;;;;;;;;;;;11.10;99.90;;;;;;5055852;28;20034;-61
2023/02/16 14:13:28;;;;;;;;;;;11.10;99.90;;;;;;5055691;28;19928;-61
2023/02/16 14:15:55;;;;;;;;;;;11.10;99.90;;;;;;5055505;28;20374;-60
2023/02/16 14:18:30;;;;;;;;;;;11.00;99.90;;;;;;5055811;28;19956;-61
2023/02/16 14:21:14;;;;;;;;;;;11.00;99.90;;;;;;5055344;28;20489;-60
2023/02/16 14:23:40;;;;;;;;;;;11.00;99.90;;;;;;5055317;28;19921;-60
2023/02/16 14:26:07;;;;;;;;;;;10.90;99.90;;;;;;5055536;28;20268;-60
2023/02/16 14:28:35;;;;;;;;;;;10.90;99.90;;;;;;5055690;28;19916;-61
2023/02/16 14:31:03;;;;;;;;;;;10.90;99.90;;;;;;5054405;28;19917;-60
2023/02/16 14:33:40;;;;;;;;;;;10.90;99.90;;;;;;5055519;28;20046;-61
2023/02/16 14:36:07;;;;;;;;;;;10.90;99.90;;;;;;5055415;28;19917;-60
2023/02/16 14:38:39;;;;;;;;;;;10.90;99.90;;;;;;5055416;28;19916;-61
2023/02/16 14:41:07;;;;;;;;;;;10.80;99.90;;;;;;5055359;28;19924;-61
2023/02/16 14:43:33;;;;;;;;;;;10.80;99.90;;;;;;5053950;28;19920;-61
2023/02/16 14:46:22;;;;;;;;;;;10.70;99.90;;;;;;5055361;28;20274;-61
2023/02/16 14:49:20;;;;;;;;;;;10.70;99.90;;;;;;5054990;28;19927;-62
2023/02/16 14:51:45;;;;;;;;;;;10.60;99.90;;;;;;4993603;28;19945;-60
2023/02/16 14:54:14;;;;;;;;;;;10.50;99.90;;;;;;4993364;28;19960;-60
2023/02/16 14:56:49;;;;;;;;;;;10.60;99.90;;;;;;4992974;28;19917;-61
2023/02/16 14:59:37;;;;;;;;;;;10.60;99.90;;;;;;4993473;28;19945;-61
2023/02/16 15:02:23;;;;;;;;;;;10.50;99.90;;;;;;4993324;28;19980;-60
2023/02/16 15:04:50;;;;;;;;;;;10.50;99.90;;;;;;4993580;28;19921;-60
2023/02/16 15:07:17;;;;;;;;;;;10.50;99.90;;;;;;4977323;28;20265;-60
2023/02/16 15:09:43;;;;;;;;;;;10.40;99.90;;;;;;4993499;28;20032;-60
2023/02/16 15:12:23;;;;;;;;;;;10.40;99.90;;;;;;4993399;28;20459;-60
2023/02/16 15:14:57;;;;;;;;;;;10.40;99.90;;;;;;4993118;28;20391;-61